Time;durP1;ratioP1;P1;durP2;ratioP2;P2;SDS_P1;SDS_P2;PMS_P1;PMS_P2;Temp;Humidity;BMP_temperature;BMP_pressure;BME280_temperature;BME280_humidity;BME280_pressure;Samples;Min_cycle;Max_cycle;Signal;HPM_P1;HPM_P2
2022/04/01 00:00:01;;;;;;;4.25;1.20;;;1.10;99.90;;;;;;4995129;28;20052;-76
2022/04/01 00:02:26;;;;;;;3.08;1.30;;;1.10;99.90;;;;;;4993425;28;20054;-77
2022/04/01 00:04:52;;;;;;;2.05;1.30;;;2.20;99.90;;;;;;5026805;28;20042;-77
2022/04/01 00:07:18;;;;;;;3.63;1.40;;;2.00;99.90;;;;;;5009961;28;20046;-78
2022/04/01 00:09:44;;;;;;;4.00;1.67;;;0.90;99.90;;;;;;5027717;28;20041;-76
2022/04/01 00:12:11;;;;;;;2.58;1.00;;;1.40;99.90;;;;;;5013629;28;20111;-76
2022/04/01 00:14:38;;;;;;;2.33;1.15;;;0.90;99.90;;;;;;5013867;28;20056;-76
2022/04/01 00:17:04;;;;;;;3.42;1.25;;;0.90;99.90;;;;;;4992386;28;20060;-77
2022/04/01 00:19:30;;;;;;;3.35;1.30;;;0.90;99.90;;;;;;4973036;28;20050;-77
2022/04/01 00:21:56;;;;;;;3.85;1.42;;;2.10;99.90;;;;;;5009438;28;20510;-76
2022/04/01 00:24:22;;;;;;;3.10;1.13;;;2.10;99.90;;;;;;5000721;28;20054;-77
2022/04/01 00:26:48;;;;;;;3.92;1.40;;;1.80;99.90;;;;;;5026679;28;20092;-76
2022/04/01 00:29:15;;;;;;;3.20;1.10;;;1.00;99.90;;;;;;5007067;28;20100;-77
2022/04/01 00:31:59;;;;;;;3.95;1.60;;;1.10;99.90;;;;;;4992824;28;20057;-77
2022/04/01 00:34:30;;;;;;;2.13;1.65;;;2.40;99.90;;;;;;4993933;28;20050;-77
2022/04/01 00:36:58;;;;;;;3.47;1.42;;;2.20;99.90;;;;;;4994003;28;20052;-76
2022/04/01 00:39:25;;;;;;;4.57;1.40;;;1.40;99.90;;;;;;5009531;28;20111;-76
2022/04/01 00:41:52;;;;;;;2.90;1.17;;;1.10;99.90;;;;;;4992751;28;20049;-77
2022/04/01 00:44:19;;;;;;;2.83;1.38;;;1.10;99.90;;;;;;5009804;28;20053;-77
2022/04/01 00:46:58;;;;;;;2.47;1.30;;;1.10;99.90;;;;;;5011005;28;20046;-77
2022/04/01 00:49:29;;;;;;;3.35;1.17;;;1.10;99.90;;;;;;5008475;28;20065;-77
2022/04/01 00:51:56;;;;;;;2.92;1.08;;;2.60;99.90;;;;;;5007810;28;20152;-76
2022/04/01 00:54:23;;;;;;;4.15;1.40;;;1.10;99.90;;;;;;4990460;28;20115;-77
2022/04/01 00:56:49;;;;;;;3.00;1.40;;;2.10;99.90;;;;;;5010726;28;20077;-77
2022/04/01 00:59:15;;;;;;;2.08;1.13;;;2.10;99.90;;;;;;5010098;28;20053;-76
2022/04/01 01:01:44;;;;;;;2.83;1.30;;;2.50;99.90;;;;;;4999546;28;20201;-77
2022/04/01 01:04:15;;;;;;;5.22;1.25;;;1.50;99.90;;;;;;5010067;28;20057;-77
2022/04/01 01:06:46;;;;;;;3.00;1.50;;;2.40;99.90;;;;;;5003587;28;20133;-77
2022/04/01 01:09:14;;;;;;;2.88;1.45;;;1.40;99.90;;;;;;5008907;28;20061;-77
2022/04/01 01:11:40;;;;;;;4.05;1.27;;;2.20;99.90;;;;;;5008536;28;20069;-77
2022/04/01 01:14:08;;;;;;;2.50;1.20;;;2.40;99.90;;;;;;5010574;28;20625;-77
2022/04/01 01:16:36;;;;;;;5.00;1.75;;;2.00;99.90;;;;;;5025061;28;20127;-77
2022/04/01 01:19:07;;;;;;;3.80;1.45;;;1.10;99.90;;;;;;4993902;28;20076;-77
2022/04/01 01:21:33;;;;;;;3.70;1.52;;;1.10;99.90;;;;;;4992743;28;20054;-77
2022/04/01 01:24:05;;;;;;;3.33;1.23;;;1.10;99.90;;;;;;4992285;28;20154;-77
2022/04/01 01:26:33;;;;;;;3.40;1.30;;;1.10;99.90;;;;;;4989624;28;20057;-77
2022/04/01 01:28:59;;;;;;;3.47;1.30;;;2.30;99.90;;;;;;4994253;28;20085;-78
2022/04/01 01:31:26;;;;;;;3.95;1.45;;;2.20;99.90;;;;;;4993047;28;20058;-78
2022/04/01 01:33:54;;;;;;;2.85;1.30;;;2.10;99.90;;;;;;5008413;28;20054;-77
2022/04/01 01:36:20;;;;;;;2.50;1.10;;;1.90;99.90;;;;;;5003562;28;20046;-77
2022/04/01 01:38:46;;;;;;;3.65;1.40;;;2.20;99.90;;;;;;4993540;28;20053;-77
2022/04/01 01:41:12;;;;;;;3.03;1.42;;;1.80;99.90;;;;;;4992670;28;20065;-77
2022/04/01 01:43:39;;;;;;;3.10;1.17;;;1.20;99.90;;;;;;4973553;28;20077;-77
2022/04/01 01:46:05;;;;;;;3.65;1.20;;;2.90;99.90;;;;;;4990312;28;20038;-77
2022/04/01 01:48:30;;;;;;;2.08;1.20;;;2.50;99.90;;;;;;4997287;28;20050;-77
2022/04/01 01:56:25;;;;;;;5.25;1.23;;;1.30;99.90;;;;;;5005154;28;20794;-78
2022/04/01 01:58:50;;;;;;;2.47;1.20;;;1.20;99.90;;;;;;5006769;28;20042;-78
2022/04/01 02:01:16;;;;;;;3.53;1.63;;;1.20;99.90;;;;;;4991992;28;20129;-77
2022/04/01 02:03:42;;;;;;;3.35;1.45;;;1.20;99.90;;;;;;5023708;28;20057;-77
2022/04/01 02:06:08;;;;;;;2.55;1.15;;;2.70;99.90;;;;;;4992285;28;20080;-77
2022/04/01 02:08:33;;;;;;;3.13;1.30;;;1.20;99.90;;;;;;4990643;28;20170;-77
2022/04/01 02:10:59;;;;;;;3.35;1.20;;;2.20;99.90;;;;;;4992588;28;20046;-77
2022/04/01 02:13:27;;;;;;;4.18;1.48;;;2.10;99.90;;;;;;5006622;28;20169;-78
2022/04/01 02:15:54;;;;;;;7.85;1.85;;;1.20;99.90;;;;;;4972592;28;20151;-77
2022/04/01 02:18:22;;;;;;;4.38;1.73;;;1.40;99.90;;;;;;4975855;28;20403;-77
2022/04/01 02:20:50;;;;;;;2.58;1.30;;;2.30;99.90;;;;;;5008586;28;20131;-77
2022/04/01 02:23:16;;;;;;;4.97;1.40;;;1.70;99.90;;;;;;4992178;28;20517;-77
2022/04/01 02:25:43;;;;;;;3.08;1.30;;;2.10;99.90;;;;;;5006978;28;20080;-77
2022/04/01 02:28:12;;;;;;;3.33;1.38;;;1.20;99.90;;;;;;5007891;28;20398;-78
2022/04/01 02:30:39;;;;;;;4.18;1.70;;;1.20;99.90;;;;;;5007232;28;20412;-77
2022/04/01 02:33:08;;;;;;;4.65;1.70;;;1.50;99.90;;;;;;4991543;28;20042;-77
2022/04/01 02:35:34;;;;;;;4.32;1.50;;;1.30;99.90;;;;;;5007310;28;20048;-78
2022/04/01 02:38:01;;;;;;;7.88;1.48;;;1.30;99.90;;;;;;4976362;28;20093;-76
2022/04/01 02:40:27;;;;;;;5.53;1.65;;;2.60;99.90;;;;;;5007535;28;20081;-78
2022/04/01 02:42:54;;;;;;;4.03;1.38;;;1.30;99.90;;;;;;4991403;28;20060;-77
2022/04/01 02:45:26;;;;;;;2.55;1.20;;;1.30;99.90;;;;;;5008044;28;20050;-78
2022/04/01 02:47:52;;;;;;;8.45;1.40;;;1.30;99.90;;;;;;5008503;28;20192;-77
2022/04/01 02:50:18;;;;;;;3.70;1.25;;;1.30;99.90;;;;;;4990530;28;20508;-77
2022/04/01 02:52:44;;;;;;;2.88;1.45;;;1.50;99.90;;;;;;5006622;28;20053;-77
2022/04/01 02:55:10;;;;;;;5.50;1.60;;;1.60;99.90;;;;;;5004878;28;20560;-76
2022/04/01 02:57:36;;;;;;;3.08;1.30;;;1.30;99.90;;;;;;5006631;28;20053;-77
2022/04/01 03:00:09;;;;;;;6.05;1.70;;;1.30;99.90;;;;;;4990989;28;20046;-76
2022/04/01 03:02:40;;;;;;;3.72;1.70;;;1.40;99.90;;;;;;4991396;28;20042;-76
2022/04/01 03:05:06;;;;;;;5.38;1.48;;;1.40;99.90;;;;;;5023352;28;20855;-76
2022/04/01 03:07:33;;;;;;;2.70;1.58;;;1.40;99.90;;;;;;4990210;28;20054;-77
2022/04/01 03:09:59;;;;;;;6.55;1.40;;;1.40;99.90;;;;;;5008142;28;20184;-76
2022/04/01 03:12:25;;;;;;;3.53;1.50;;;1.40;99.90;;;;;;4990728;28;20137;-76
2022/04/01 03:14:51;;;;;;;5.30;1.60;;;1.90;99.90;;;;;;4989244;28;20060;-76
2022/04/01 03:17:17;;;;;;;4.47;1.20;;;1.60;99.90;;;;;;5006840;28;20049;-76
2022/04/01 03:19:44;;;;;;;4.45;1.50;;;2.20;99.90;;;;;;4972793;28;20050;-77
2022/04/01 03:22:09;;;;;;;12.90;1.88;;;1.40;99.90;;;;;;4993585;28;20438;-76
2022/04/01 03:24:35;;;;;;;3.83;1.65;;;2.70;99.90;;;;;;4982579;28;20107;-76
2022/04/01 03:27:02;;;;;;;4.53;1.40;;;2.50;99.90;;;;;;4981448;28;20049;-76
2022/04/01 03:29:28;;;;;;;2.95;1.35;;;1.40;99.90;;;;;;5003860;28;20057;-76
2022/04/01 03:31:54;;;;;;;4.38;1.30;;;1.80;99.90;;;;;;4965746;28;20172;-76
2022/04/01 03:34:20;;;;;;;4.18;1.50;;;2.40;99.90;;;;;;4959166;28;20121;-76
2022/04/01 03:36:46;;;;;;;4.88;1.45;;;2.20;99.90;;;;;;4990030;28;20501;-76
2022/04/01 03:39:12;;;;;;;4.47;1.60;;;2.90;99.90;;;;;;5005504;28;20049;-76
2022/04/01 03:41:39;;;;;;;3.55;1.45;;;2.60;99.90;;;;;;4973615;28;20527;-77
2022/04/01 03:44:05;;;;;;;5.13;1.50;;;1.50;99.90;;;;;;5005713;28;20550;-76
2022/04/01 03:46:52;;;;;;;5.80;1.38;;;1.50;99.90;;;;;;4989830;28;20050;-78
2022/04/01 03:49:23;;;;;;;4.80;1.38;;;1.60;99.90;;;;;;5009073;28;20743;-76
2022/04/01 03:51:50;;;;;;;5.30;1.77;;;2.30;99.90;;;;;;4992129;28;20056;-77
2022/04/01 03:54:18;;;;;;;4.75;1.50;;;1.90;99.90;;;;;;5011866;28;20113;-76
2022/04/01 03:56:48;;;;;;;3.45;1.30;;;2.80;99.90;;;;;;4993703;28;20103;-76
2022/04/01 03:59:17;;;;;;;3.95;1.50;;;2.50;99.90;;;;;;4990643;28;20061;-76
2022/04/01 04:01:43;;;;;;;7.75;1.60;;;2.50;99.90;;;;;;5005873;28;20422;-76
2022/04/01 04:04:13;;;;;;;8.57;1.48;;;1.70;99.90;;;;;;4990596;28;20050;-76
2022/04/01 04:06:40;;;;;;;4.13;1.40;;;2.70;99.90;;;;;;4987967;28;20403;-77
2022/04/01 04:09:06;;;;;;;3.58;1.60;;;1.80;99.90;;;;;;4988366;28;20050;-76
2022/04/01 04:11:33;;;;;;;4.95;1.60;;;1.70;99.90;;;;;;4988826;28;20065;-76
2022/04/01 04:14:01;;;;;;;4.85;1.63;;;2.60;99.90;;;;;;5005518;28;20088;-77
2022/04/01 04:16:27;;;;;;;10.35;2.05;;;1.60;99.90;;;;;;4987627;28;20585;-76
2022/04/01 04:19:00;;;;;;;4.35;1.88;;;1.80;99.90;;;;;;5005517;28;20649;-76
2022/04/01 04:21:31;;;;;;;6.32;2.00;;;1.60;99.90;;;;;;4989215;28;20054;-76
2022/04/01 04:23:59;;;;;;;6.05;1.65;;;1.60;99.90;;;;;;4988982;28;20080;-76
2022/04/01 04:26:30;;;;;;;4.63;1.80;;;1.70;99.90;;;;;;4990510;28;20050;-76
2022/04/01 04:29:07;;;;;;;3.05;1.58;;;1.60;99.90;;;;;;4998833;28;20438;-76
2022/04/01 04:31:35;;;;;;;3.95;1.80;;;2.20;99.90;;;;;;5005322;28;20042;-76
2022/04/01 04:34:04;;;;;;;6.30;1.52;;;2.70;99.90;;;;;;5005414;28;20073;-77
2022/04/01 04:36:38;;;;;;;4.60;1.30;;;1.60;99.90;;;;;;5006675;28;20046;-76
2022/04/01 04:39:09;;;;;;;3.55;1.60;;;1.60;99.90;;;;;;5007829;28;20132;-77
2022/04/01 04:41:35;;;;;;;5.05;1.83;;;1.60;99.90;;;;;;4992224;28;20100;-78
2022/04/01 04:44:02;;;;;;;3.42;1.48;;;2.60;99.90;;;;;;5010532;28;20071;-77
2022/04/01 04:46:30;;;;;;;6.78;1.88;;;1.60;99.90;;;;;;4993499;28;20072;-77
2022/04/01 04:48:56;;;;;;;5.55;1.92;;;2.80;99.90;;;;;;5009153;28;20096;-77
2022/04/01 04:51:28;;;;;;;5.60;1.63;;;2.20;99.90;;;;;;5009016;28;20659;-77
2022/04/01 04:53:57;;;;;;;8.75;1.60;;;1.60;99.90;;;;;;5024380;28;20112;-77
2022/04/01 04:56:25;;;;;;;6.10;1.52;;;2.20;99.90;;;;;;4994104;28;20049;-78
2022/04/01 04:58:56;;;;;;;4.10;1.77;;;1.60;99.90;;;;;;5008537;28;20111;-77
2022/04/01 05:01:32;;;;;;;5.18;1.80;;;1.60;99.90;;;;;;5027150;28;20065;-77
2022/04/01 05:04:14;;;;;;;;;;;2.10;99.90;;;;;;5009677;28;20112;-77
2022/04/01 05:07:01;;;;;;;6.57;2.03;;;1.60;99.90;;;;;;5007979;28;19925;-76
2022/04/01 05:09:40;;;;;;;3.45;1.65;;;1.60;99.90;;;;;;5008854;28;20057;-77
2022/04/01 05:12:12;;;;;;;9.23;1.90;;;2.90;99.90;;;;;;5001419;28;20061;-78
2022/04/01 05:15:23;;;;;;;3.05;1.48;;;1.70;99.90;;;;;;4987749;28;20070;-78
2022/04/01 05:18:22;;;;;;;4.05;1.77;;;1.70;99.90;;;;;;4954431;28;20517;-78
2022/04/01 05:21:01;;;;;;;8.05;2.05;;;1.70;99.90;;;;;;4970248;28;20113;-78
2022/04/01 05:23:57;;;;;;;5.70;1.63;;;1.60;99.90;;;;;;4980493;28;20053;-78
2022/04/01 05:26:38;;;;;;;4.28;1.65;;;1.60;99.90;;;;;;4991102;28;20056;-78
2022/04/01 05:29:09;;;;;;;7.65;1.70;;;0.50;99.90;;;;;;4975373;28;20053;-78
2022/04/01 05:31:40;;;;;;;6.22;1.60;;;2.60;99.90;;;;;;5005060;28;20107;-78
2022/04/01 05:34:43;;;;;;;4.18;1.52;;;2.90;99.90;;;;;;5004337;28;20046;-78
2022/04/01 05:37:09;;;;;;;4.65;1.65;;;1.60;99.90;;;;;;5006292;28;20049;-78
2022/04/01 05:39:37;;;;;;;5.38;1.55;;;1.70;99.90;;;;;;4973652;28;20103;-78
2022/04/01 05:42:06;;;;;;;3.38;1.58;;;1.60;99.90;;;;;;4980666;28;20048;-78
2022/04/01 05:44:34;;;;;;;4.70;1.55;;;1.90;99.90;;;;;;5006868;28;20081;-78
2022/04/01 05:47:01;;;;;;;5.95;1.70;;;1.80;99.90;;;;;;5002117;28;20053;-78
2022/04/01 05:49:28;;;;;;;3.35;1.48;;;1.90;99.90;;;;;;5003938;28;20499;-78
2022/04/01 05:51:54;;;;;;;6.72;1.70;;;1.70;99.90;;;;;;5002108;28;20132;-78
2022/04/01 05:54:22;;;;;;;3.88;1.67;;;1.70;99.90;;;;;;5003002;28;20042;-77
2022/04/01 05:56:50;;;;;;;5.03;1.30;;;2.90;99.90;;;;;;5005361;28;20057;-78
2022/04/01 05:59:19;;;;;;;5.90;2.08;;;1.80;99.90;;;;;;4981303;28;20403;-78
2022/04/01 06:02:21;;;;;;;3.22;1.38;;;1.70;99.90;;;;;;4984606;28;20514;-77
2022/04/01 06:05:25;;;;;;;5.25;1.67;;;1.70;99.90;;;;;;4994191;28;20049;-77
2022/04/01 06:08:15;;;;;;;2.97;1.50;;;1.70;99.90;;;;;;4989046;28;20142;-77
2022/04/01 06:11:22;;;;;;;4.60;1.33;;;1.70;99.90;;;;;;5002565;28;20084;-78
2022/04/01 06:14:01;;;;;;;4.07;1.55;;;1.70;99.90;;;;;;5006030;28;20046;-77
2022/04/01 06:16:37;;;;;;;5.40;1.83;;;1.70;99.90;;;;;;5003154;28;20153;-77
2022/04/01 06:19:14;;;;;;;4.93;1.50;;;1.70;99.90;;;;;;5001873;28;20046;-78
2022/04/01 06:21:48;;;;;;;2.35;1.10;;;1.80;99.90;;;;;;4991708;28;21561;-76
2022/04/01 06:24:44;;;;;;;4.80;1.98;;;2.70;99.90;;;;;;4984698;28;20065;-75
2022/04/01 06:27:22;;;;;;;4.22;1.50;;;1.80;99.90;;;;;;4991677;28;20376;-77
2022/04/01 06:30:15;;;;;;;4.72;1.73;;;2.20;99.90;;;;;;5005410;28;20057;-77
2022/04/01 06:32:49;;;;;;;4.43;1.55;;;3.00;99.90;;;;;;5002373;28;20053;-77
2022/04/01 06:35:31;;;;;;;8.52;1.90;;;1.90;99.90;;;;;;4991240;28;20045;-77
2022/04/01 06:37:59;;;;;;;3.03;1.40;;;1.90;99.90;;;;;;4991049;28;20100;-77
2022/04/01 06:40:50;;;;;;;3.22;1.15;;;1.90;99.90;;;;;;4967918;28;20510;-77
2022/04/01 06:43:17;;;;;;;4.50;1.42;;;1.90;99.90;;;;;;4998563;28;20058;-76
2022/04/01 06:45:42;;;;;;;4.15;1.50;;;2.70;99.90;;;;;;5007374;28;20495;-77
2022/04/01 06:48:09;;;;;;;5.53;1.58;;;3.50;99.90;;;;;;4991186;28;20061;-77
2022/04/01 06:50:34;;;;;;;8.63;2.15;;;2.10;99.90;;;;;;5006164;28;20525;-77
2022/04/01 06:53:01;;;;;;;5.32;1.40;;;2.00;99.90;;;;;;5006078;28;20045;-77
2022/04/01 06:55:26;;;;;;;3.60;1.67;;;2.50;99.90;;;;;;4990627;28;20131;-77
2022/04/01 06:57:52;;;;;;;5.53;1.70;;;2.10;99.90;;;;;;4991152;28;20183;-77
2022/04/01 07:00:19;;;;;;;4.57;1.50;;;3.10;99.90;;;;;;4993381;28;20053;-77
2022/04/01 07:02:46;;;;;;;4.13;1.45;;;2.10;99.90;;;;;;4991432;28;20053;-78
2022/04/01 07:05:12;;;;;;;4.75;1.50;;;2.20;99.90;;;;;;5000151;28;20061;-78
2022/04/01 07:07:43;;;;;;;8.77;2.45;;;2.20;99.90;;;;;;4991952;28;20402;-77
2022/04/01 07:10:11;;;;;;;3.40;1.58;;;3.50;99.90;;;;;;4990186;28;20057;-78
2022/04/01 07:12:37;;;;;;;5.53;1.55;;;3.40;99.90;;;;;;4989604;28;20085;-79
2022/04/01 07:15:04;;;;;;;5.20;1.40;;;2.30;99.90;;;;;;5023227;28;20046;-77
2022/04/01 07:17:30;;;;;;;2.85;1.60;;;2.40;99.90;;;;;;4990178;28;20058;-77
2022/04/01 07:19:56;;;;;;;4.50;1.48;;;2.40;99.90;;;;;;4990116;28;20088;-77
2022/04/01 07:22:21;;;;;;;4.07;1.30;;;3.60;99.90;;;;;;4991304;28;20053;-76
2022/04/01 07:24:48;;;;;;;6.72;1.58;;;2.50;99.90;;;;;;4990035;28;20045;-77
2022/04/01 07:27:14;;;;;;;2.83;1.33;;;2.50;99.90;;;;;;4991997;28;20042;-77
2022/04/01 07:29:40;;;;;;;5.05;1.35;;;2.60;99.90;;;;;;4978395;28;20050;-79
2022/04/01 07:34:51;;;;;;;5.05;1.77;;;2.60;99.90;;;;;;5029014;28;20042;-79
2022/04/01 07:37:22;;;;;;;4.13;1.55;;;3.90;99.90;;;;;;4990958;28;20445;-79
2022/04/01 07:39:48;;;;;;;2.97;1.40;;;4.00;99.90;;;;;;5003625;28;20042;-81
2022/04/01 07:42:14;;;;;;;4.50;1.65;;;2.60;99.90;;;;;;5004822;28;20046;-79
2022/04/01 07:44:40;;;;;;;2.75;1.35;;;2.70;99.90;;;;;;4991243;28;20045;-81
2022/04/01 07:47:09;;;;;;;8.23;1.80;;;3.20;99.90;;;;;;5004986;28;20054;-76
2022/04/01 07:49:38;;;;;;;4.60;1.40;;;2.70;99.90;;;;;;5004391;28;20050;-75
2022/04/01 07:52:07;;;;;;;4.47;1.35;;;2.70;99.90;;;;;;5001996;28;20311;-76
2022/04/01 07:54:34;;;;;;;4.15;1.45;;;3.00;99.90;;;;;;4989179;28;20200;-79
2022/04/01 07:57:00;;;;;;;3.20;1.20;;;3.30;99.90;;;;;;5006479;28;20541;-79
2022/04/01 07:59:26;;;;;;;3.85;1.40;;;2.70;99.90;;;;;;5006917;28;20050;-80
2022/04/01 08:01:51;;;;;;;3.42;1.17;;;2.70;99.90;;;;;;4968989;28;20433;-79
2022/04/01 08:04:17;;;;;;;5.15;1.50;;;2.70;99.90;;;;;;4991199;28;20050;-77
2022/04/01 08:06:43;;;;;;;5.47;2.13;;;2.80;99.90;;;;;;5007286;28;20053;-77
2022/04/01 08:09:09;;;;;;;5.47;1.50;;;2.80;99.90;;;;;;4982976;28;20495;-77
2022/04/01 08:11:34;;;;;;;9.35;1.60;;;3.90;99.90;;;;;;4988950;28;20046;-79
2022/04/01 08:14:00;;;;;;;5.13;1.40;;;3.20;99.90;;;;;;4982561;28;20061;-79
2022/04/01 08:16:26;;;;;;;6.07;1.45;;;2.80;99.90;;;;;;5011137;28;20053;-76
2022/04/01 08:18:52;;;;;;;4.85;1.52;;;2.80;99.90;;;;;;5010035;28;20387;-77
2022/04/01 08:21:18;;;;;;;5.18;1.40;;;2.80;99.90;;;;;;5026761;28;20075;-76
2022/04/01 08:23:44;;;;;;;4.90;1.30;;;2.80;99.90;;;;;;5008646;28;20045;-76
2022/04/01 08:26:11;;;;;;;3.83;1.58;;;2.80;99.90;;;;;;5009522;28;20049;-76
2022/04/01 08:28:37;;;;;;;3.70;1.40;;;2.90;99.90;;;;;;4984260;28;20089;-76
2022/04/01 08:31:03;;;;;;;5.88;1.55;;;3.80;99.90;;;;;;4976616;28;20046;-77
2022/04/01 08:33:30;;;;;;;6.28;1.75;;;3.10;99.90;;;;;;4985633;28;20042;-76
2022/04/01 08:35:56;;;;;;;3.28;1.30;;;3.80;99.90;;;;;;4993913;28;20422;-76
2022/04/01 08:38:21;;;;;;;7.70;1.75;;;3.20;99.90;;;;;;4985620;28;20418;-76
2022/04/01 08:40:47;;;;;;;3.17;1.52;;;4.20;99.90;;;;;;5010929;28;20056;-76
2022/04/01 08:43:22;;;;;;;7.43;1.58;;;4.50;99.90;;;;;;5010111;28;20053;-76
2022/04/01 08:45:48;;;;;;;3.53;1.40;;;3.50;99.90;;;;;;5011373;28;20124;-76
2022/04/01 08:48:14;;;;;;;3.72;1.60;;;4.70;99.90;;;;;;4993544;28;20474;-76
2022/04/01 08:50:43;;;;;;;6.13;1.60;;;3.90;99.90;;;;;;4994310;28;20045;-76
2022/04/01 08:53:09;;;;;;;6.47;1.42;;;3.80;99.90;;;;;;5000103;28;20050;-76
2022/04/01 08:55:34;;;;;;;4.47;1.55;;;3.90;99.90;;;;;;5009861;28;20053;-77
2022/04/01 08:58:00;;;;;;;7.22;1.58;;;4.00;99.90;;;;;;5009290;28;20054;-79
2022/04/01 09:00:26;;;;;;;5.03;1.23;;;4.20;99.90;;;;;;4970381;28;20054;-77
2022/04/01 09:03:00;;;;;;;4.45;1.52;;;4.90;99.90;;;;;;4993830;28;20050;-78
2022/04/01 09:05:26;;;;;;;4.75;1.27;;;4.50;99.90;;;;;;4994212;28;20565;-77
2022/04/01 09:08:03;;;;;;;5.53;1.63;;;4.60;99.90;;;;;;5009992;28;20260;-78
2022/04/01 09:10:29;;;;;;;4.28;1.77;;;4.70;99.90;;;;;;5010168;28;20049;-77
2022/04/01 09:12:55;;;;;;;2.38;1.00;;;4.80;99.90;;;;;;5007347;28;20555;-78
2022/04/01 09:15:21;;;;;;;5.30;1.45;;;5.00;99.90;;;;;;4992783;28;20061;-77
2022/04/01 09:17:48;;;;;;;4.57;1.40;;;5.10;99.90;;;;;;5009162;28;20475;-77
2022/04/01 09:20:15;;;;;;;3.97;1.45;;;5.20;99.90;;;;;;4991427;28;20629;-77
2022/04/01 09:22:42;;;;;;;6.03;1.60;;;5.30;99.90;;;;;;5007923;28;20057;-77
2022/04/01 09:25:11;;;;;;;2.88;1.08;;;5.50;99.90;;;;;;4991858;28;20407;-77
2022/04/01 09:27:48;;;;;;;4.32;1.08;;;5.50;99.90;;;;;;5008668;28;20049;-78
2022/04/01 09:30:29;;;;;;;5.10;1.50;;;5.60;99.90;;;;;;5008973;28;20089;-78
2022/04/01 09:32:58;;;;;;;3.65;1.60;;;5.60;99.90;;;;;;5005616;28;20049;-78
2022/04/01 09:35:29;;;;;;;3.72;1.30;;;5.60;99.90;;;;;;4992074;28;20523;-77
2022/04/01 09:37:58;;;;;;;2.83;1.52;;;5.70;99.90;;;;;;4986130;28;20049;-77
2022/04/01 09:40:25;;;;;;;3.35;1.27;;;5.70;99.90;;;;;;4993092;28;20046;-78
2022/04/01 09:43:02;;;;;;;6.05;1.30;;;5.90;99.90;;;;;;5009725;28;20060;-77
2022/04/01 09:45:30;;;;;;;3.50;1.25;;;5.80;99.90;;;;;;5008857;28;20384;-77
2022/04/01 09:48:03;;;;;;;2.95;1.20;;;5.90;99.90;;;;;;4991203;28;20049;-78
2022/04/01 09:50:36;;;;;;;4.18;1.15;;;6.10;99.90;;;;;;5008028;28;20072;-80
2022/04/01 09:53:12;;;;;;;3.08;1.38;;;6.20;99.90;;;;;;4987410;28;20056;-79
2022/04/01 09:55:40;;;;;;;4.82;1.50;;;6.50;99.90;;;;;;5008058;28;20368;-77
2022/04/01 09:58:06;;;;;;;4.25;1.50;;;6.60;99.90;;;;;;4985014;28;20531;-77
2022/04/01 10:00:34;;;;;;;3.78;1.30;;;6.70;99.90;;;;;;4969928;28;20491;-77
2022/04/01 10:02:59;;;;;;;6.03;1.65;;;6.80;99.90;;;;;;4983012;28;20113;-79
2022/04/01 10:05:26;;;;;;;7.63;1.40;;;6.90;99.90;;;;;;4991877;28;20137;-78
2022/04/01 10:07:55;;;;;;;3.30;1.40;;;7.10;99.90;;;;;;4998665;28;20810;-78
2022/04/01 10:10:21;;;;;;;4.35;1.52;;;7.20;99.90;;;;;;5006122;28;20042;-76
2022/04/01 10:12:48;;;;;;;5.00;1.60;;;7.20;99.90;;;;;;4991457;28;20573;-78
2022/04/01 10:15:14;;;;;;;5.85;1.50;;;7.30;99.90;;;;;;4975748;28;20052;-77
2022/04/01 10:17:41;;;;;;;3.88;1.33;;;7.40;99.90;;;;;;4991937;28;20057;-76
2022/04/01 10:20:13;;;;;;;4.95;1.52;;;7.60;99.90;;;;;;5008096;28;20833;-76
2022/04/01 10:22:41;;;;;;;4.60;1.30;;;7.70;99.90;;;;;;4986253;28;20462;-76
2022/04/01 10:25:21;;;;;;;4.55;1.48;;;7.80;99.90;;;;;;5006982;28;20439;-76
2022/04/01 10:27:52;;;;;;;4.70;1.20;;;7.90;99.90;;;;;;5005534;28;20510;-80
2022/04/01 10:30:20;;;;;;;4.55;1.50;;;7.90;99.90;;;;;;4989621;28;20053;-78
2022/04/01 10:32:47;;;;;;;6.13;1.63;;;8.00;99.90;;;;;;4990004;28;20535;-78
2022/04/01 10:35:29;;;;;;;4.20;1.25;;;8.20;99.90;;;;;;5005259;28;20047;-77
2022/04/01 10:38:05;;;;;;;4.32;1.50;;;8.40;99.90;;;;;;5004201;28;20054;-76
2022/04/01 10:40:41;;;;;;;3.65;1.27;;;8.50;99.90;;;;;;4990952;28;20060;-76
2022/04/01 10:43:16;;;;;;;3.03;1.38;;;8.70;99.90;;;;;;5007838;28;20096;-76
2022/04/01 10:45:59;;;;;;;3.20;1.35;;;8.90;99.90;;;;;;4992299;28;20046;-77
2022/04/01 10:51:38;;;;;;;2.67;1.15;;;9.30;99.90;;;;;;5006524;28;20491;-76
2022/04/01 10:54:24;;;;;;;2.40;1.48;;;9.50;99.90;;;;;;5005453;28;20046;-76
2022/04/01 10:57:07;;;;;;;2.27;1.20;;;9.70;99.90;;;;;;5016314;28;20049;-76
2022/04/01 10:59:46;;;;;;;4.03;1.27;;;9.70;99.90;;;;;;5007652;28;20387;-77
2022/04/01 11:02:15;;;;;;;2.55;1.13;;;9.80;99.90;;;;;;5001511;28;20625;-78
2022/04/01 11:04:44;;;;;;;4.15;1.45;;;9.50;99.90;;;;;;5000518;28;20240;-76
2022/04/01 11:07:22;;;;;;;3.38;1.20;;;9.50;99.90;;;;;;4992413;28;20376;-76
2022/04/01 11:09:50;;;;;;;3.30;1.13;;;9.30;99.90;;;;;;4989661;28;20050;-75
2022/04/01 11:12:15;;;;;;;3.50;1.20;;;9.60;99.90;;;;;;5005792;28;20069;-76
2022/04/01 11:14:53;;;;;;;2.65;1.08;;;9.20;99.90;;;;;;4990526;28;20174;-77
2022/04/01 11:17:26;;;;;;;3.63;1.20;;;9.20;99.90;;;;;;5006534;28;20050;-76
2022/04/01 11:20:06;;;;;;;4.85;1.40;;;9.20;99.90;;;;;;4992222;28;20060;-76
2022/04/01 11:22:43;;;;;;;4.53;1.20;;;9.40;99.90;;;;;;4989803;28;20038;-76
2022/04/01 11:25:33;;;;;;;5.00;1.17;;;9.60;99.90;;;;;;4991078;28;20061;-76
2022/04/01 11:28:01;;;;;;;2.60;1.30;;;9.80;99.90;;;;;;5005809;28;20106;-76
2022/04/01 11:30:40;;;;;;;4.22;1.35;;;9.90;99.90;;;;;;4989181;28;20038;-83
2022/04/01 11:33:16;;;;;;;1.90;0.90;;;10.00;99.90;;;;;;5006161;28;20046;-79
2022/04/01 11:35:44;;;;;;;4.75;1.20;;;10.20;99.90;;;;;;5006203;28;20045;-77
2022/04/01 11:38:16;;;;;;;3.78;1.02;;;10.10;99.90;;;;;;5003560;28;20041;-77
2022/04/01 11:40:43;;;;;;;3.78;1.30;;;10.40;99.90;;;;;;4985156;28;20209;-77
2022/04/01 11:43:11;;;;;;;2.95;1.10;;;10.50;99.90;;;;;;4991227;28;20084;-78
2022/04/01 11:45:39;;;;;;;3.70;1.50;;;10.60;99.90;;;;;;4990234;28;20068;-77
2022/04/01 11:48:18;;;;;;;3.45;1.50;;;10.40;99.30;;;;;;4989246;28;20053;-78
2022/04/01 11:50:46;;;;;;;3.85;1.60;;;10.30;97.40;;;;;;4989554;28;20558;-77
2022/04/01 11:53:20;;;;;;;4.05;1.42;;;10.30;98.60;;;;;;5004288;28;20088;-78
2022/04/01 11:55:46;;;;;;;3.13;1.20;;;10.30;97.90;;;;;;4990357;28;20049;-78
2022/04/01 11:58:12;;;;;;;2.28;1.17;;;10.40;99.00;;;;;;4980791;28;20045;-76
2022/04/01 12:00:38;;;;;;;3.28;1.20;;;10.60;97.60;;;;;;4997879;28;20073;-77
2022/04/01 12:03:07;;;;;;;3.25;1.35;;;10.60;98.70;;;;;;4982807;28;20050;-79
2022/04/01 12:05:33;;;;;;;3.50;1.23;;;10.70;98.30;;;;;;5006620;28;20053;-77
2022/04/01 12:11:11;;;;;;;1.98;1.10;;;11.10;96.50;;;;;;5006617;28;20056;-77
2022/04/01 12:13:47;;;;;;;2.28;1.05;;;10.80;91.10;;;;;;5003191;28;20127;-78
2022/04/01 12:16:13;;;;;;;2.72;1.05;;;10.70;94.90;;;;;;5008181;28;20050;-77
2022/04/01 12:18:45;;;;;;;3.50;1.48;;;10.40;95.90;;;;;;4989820;28;20172;-77
2022/04/01 12:21:19;;;;;;;2.25;0.80;;;10.30;93.30;;;;;;5004660;28;20513;-78
2022/04/01 12:23:48;;;;;;;2.53;1.05;;;10.30;93.70;;;;;;5004785;28;20494;-78
2022/04/01 12:26:16;;;;;;;1.90;0.95;;;10.40;94.40;;;;;;5005584;28;20137;-77
2022/04/01 12:28:44;;;;;;;3.25;1.00;;;10.50;94.00;;;;;;5007493;28;20046;-80
2022/04/01 12:31:36;;;;;;;4.88;1.17;;;10.60;93.80;;;;;;5005025;28;20390;-78
2022/04/01 12:34:02;;;;;;;5.25;1.30;;;10.70;91.50;;;;;;4989515;28;20049;-78
2022/04/01 12:36:34;;;;;;;2.55;1.00;;;10.90;94.20;;;;;;5005904;28;20309;-79
2022/04/01 12:39:07;;;;;;;1.63;0.80;;;11.20;92.90;;;;;;5001168;28;20398;-85
2022/04/01 12:41:33;;;;;;;1.83;1.00;;;11.30;91.70;;;;;;4987833;28;20057;-80
2022/04/01 12:44:02;;;;;;;4.15;1.40;;;11.30;91.50;;;;;;4989107;28;20088;-78
2022/04/01 12:46:34;;;;;;;1.98;1.10;;;11.30;91.50;;;;;;4995507;28;20065;-77
2022/04/01 12:49:09;;;;;;;4.15;1.15;;;11.40;90.30;;;;;;5002239;28;20052;-78
2022/04/01 12:51:36;;;;;;;2.17;0.98;;;11.30;90.30;;;;;;4998208;28;20046;-77
2022/04/01 12:54:22;;;;;;;2.15;0.95;;;11.30;90.20;;;;;;4971472;28;20050;-77
2022/04/01 12:56:50;;;;;;;1.98;0.88;;;11.10;81.50;;;;;;4988922;28;20034;-78
2022/04/01 12:59:19;;;;;;;2.75;1.13;;;11.00;86.20;;;;;;5004333;28;20045;-77
2022/04/01 13:01:55;;;;;;;2.63;1.40;;;11.00;87.10;;;;;;5007951;28;20042;-77
2022/04/01 13:04:22;;;;;;;3.92;1.10;;;11.00;85.90;;;;;;5009333;28;20057;-77
2022/04/01 13:07:07;;;;;;;4.38;0.98;;;11.00;85.20;;;;;;4972867;28;20040;-78
2022/04/01 13:09:53;;;;;;;1.33;0.85;;;11.20;78.40;;;;;;4992085;28;20134;-78
2022/04/01 13:12:35;;;;;;;4.05;1.10;;;11.20;81.60;;;;;;4992205;28;20053;-78
2022/04/01 13:15:06;;;;;;;2.67;1.10;;;11.20;79.80;;;;;;4993881;28;20065;-77
2022/04/01 13:17:44;;;;;;;2.03;0.88;;;11.10;79.50;;;;;;5008607;28;20509;-77
2022/04/01 13:20:12;;;;;;;4.80;0.90;;;11.20;78.00;;;;;;4993602;28;20041;-77
2022/04/01 13:22:42;;;;;;;2.22;1.00;;;11.20;79.70;;;;;;5010257;28;20057;-77
2022/04/01 13:25:09;;;;;;;3.05;1.13;;;11.40;79.50;;;;;;5004198;28;20998;-78